Kampville Beach, Missouri
Current Conditions -  °F | °C
As of 8:54 AM on Friday 19 Dec 2014 (Local Time) from KSET Reporting Station
Haze Haze  
Wind Chill: 26°   Ceiling: 6500
Heat Index: 32°   Visibility: 5mi
Dew Point: 28°   Wind: 6mph
Humidity: 85%   Direction: 90°E
Pressure: 30.32"   Gusts: NA
Location:  38.8615°N, 90.4548°W
Report Text: KSET 191454Z AUTO 09005KT 5SM BR SCT036 OVC065 00/M02 A3032 RMK AO2 SLP272 T00001022 51016
Loading
Personal Weather Stations






























Interactive Weather Map New forecast layout! Learn more

10-Day Weather Forecast

Advertisements
Track Severe Weather on mobile